TVF3197 GMAD-LFRS
Flight info
| Callsign | TVF3197 |
|---|---|
| Flight time | N/A |
| Altitude | 36000 |
| Route | MOGBA UH300 ESS UR724 OSLAD/N0440F380 DCT PESAS DCT PARKA DCT TLD DCT SIE DCT EDIGO DCT DGO L176 LUSEM DCT LULUT DCT CNA/N0435F340 DCT MANAK |
| Aircraft | B738/M-SDFGHIJ1RWXY/LB1 |
Departure
| Time | 2026-05-01 15:20 |
|---|---|
| Airport | Al Massira Airport (GMAD) |
Arrival
| Time | N/A |
|---|---|
| Airport | Nantes Atlantique Airport (LFRS) |
| Time | Latitude | Longitude | Altitude | Speed | Heading |
|---|---|---|---|---|---|
| 2026-05-01 14:54 | 30.32881 | -9.40997 | 230 ft | 0 kts | 2° |
| 2026-05-01 15:07 | 30.32880 | -9.40997 | 230 ft | 0 kts | 2° |
| 2026-05-01 15:11 | 30.32856 | -9.40998 | 230 ft | 4 kts | 2° |
| 2026-05-01 15:11 | 30.32834 | -9.40999 | 230 ft | 4 kts | 11° |
| 2026-05-01 15:12 | 30.32813 | -9.41012 | 235 ft | 4 kts | 65° |
| 2026-05-01 15:12 | 30.32809 | -9.41050 | 234 ft | 1 kts | 91° |
| 2026-05-01 15:14 | 30.32809 | -9.41045 | 234 ft | 2 kts | 91° |
| 2026-05-01 15:14 | 30.32807 | -9.40973 | 230 ft | 7 kts | 92° |
| 2026-05-01 15:15 | 30.32804 | -9.40814 | 230 ft | 12 kts | 91° |
| 2026-05-01 15:15 | 30.32709 | -9.40665 | 231 ft | 15 kts | 180° |
| 2026-05-01 15:16 | 30.32502 | -9.40670 | 230 ft | 15 kts | 180° |
| 2026-05-01 15:16 | 30.32434 | -9.40459 | 230 ft | 18 kts | 91° |
| 2026-05-01 15:17 | 30.32426 | -9.40141 | 230 ft | 22 kts | 91° |
| 2026-05-01 15:18 | 30.32414 | -9.39616 | 230 ft | 19 kts | 91° |
| 2026-05-01 15:18 | 30.32391 | -9.39508 | 231 ft | 12 kts | 142° |
| 2026-05-01 15:19 | 30.32225 | -9.39552 | 230 ft | 0 kts | 270° |
| 2026-05-01 15:19 | 30.32245 | -9.40384 | 230 ft | 116 kts | 272° |
| 2026-05-01 15:19 | 30.32283 | -9.41500 | 402 ft | 154 kts | 271° |
| 2026-05-01 15:20 | 30.32332 | -9.43932 | 1865 ft | 162 kts | 273° |
| 2026-05-01 15:20 | 30.32425 | -9.45362 | 2126 ft | 195 kts | 272° |
| 2026-05-01 15:20 | 30.32505 | -9.47011 | 2410 ft | 215 kts | 274° |
| 2026-05-01 15:21 | 30.32535 | -9.48801 | 2715 ft | 228 kts | 265° |
| 2026-05-01 15:21 | 30.31900 | -9.50529 | 3154 ft | 240 kts | 236° |
| 2026-05-01 15:21 | 30.30770 | -9.52064 | 3402 ft | 260 kts | 229° |
| 2026-05-01 15:21 | 30.29497 | -9.53610 | 4009 ft | 268 kts | 227° |
| 2026-05-01 15:22 | 30.27143 | -9.56933 | 5629 ft | 270 kts | 249° |
| 2026-05-01 15:22 | 30.26638 | -9.59041 | 6385 ft | 274 kts | 253° |
| 2026-05-01 15:22 | 30.26181 | -9.61193 | 7093 ft | 277 kts | 253° |
| 2026-05-01 15:23 | 30.25713 | -9.63368 | 7796 ft | 280 kts | 254° |
| 2026-05-01 15:23 | 30.25236 | -9.65560 | 8519 ft | 282 kts | 254° |
| 2026-05-01 15:23 | 30.24750 | -9.67773 | 9203 ft | 286 kts | 255° |
| 2026-05-01 15:23 | 30.24628 | -9.70075 | 9891 ft | 293 kts | 282° |
| 2026-05-01 15:24 | 30.25591 | -9.72168 | 10478 ft | 306 kts | 311° |
| 2026-05-01 15:24 | 30.27411 | -9.73597 | 10656 ft | 330 kts | 335° |
| 2026-05-01 15:24 | 30.29578 | -9.74685 | 10944 ft | 345 kts | 334° |
| 2026-05-01 15:24 | 30.31772 | -9.75874 | 11490 ft | 350 kts | 332° |
| 2026-05-01 15:25 | 30.33970 | -9.77089 | 12180 ft | 352 kts | 337° |
| 2026-05-01 15:25 | 30.36382 | -9.77648 | 12845 ft | 358 kts | 357° |
| 2026-05-01 15:25 | 30.38851 | -9.77520 | 13530 ft | 361 kts | 2° |
| 2026-05-01 15:25 | 30.41405 | -9.77270 | 14142 ft | 366 kts | 2° |
| 2026-05-01 15:26 | 30.43956 | -9.77008 | 14716 ft | 370 kts | 2° |
| 2026-05-01 15:26 | 30.46531 | -9.76755 | 15324 ft | 373 kts | 2° |
| 2026-05-01 15:26 | 30.49126 | -9.76517 | 15944 ft | 376 kts | 1° |
| 2026-05-01 15:26 | 30.51748 | -9.76288 | 16552 ft | 380 kts | 1° |
| 2026-05-01 15:27 | 30.54369 | -9.76065 | 17142 ft | 384 kts | 0° |
| 2026-05-01 15:27 | 30.57038 | -9.75838 | 17738 ft | 387 kts | 0° |
| 2026-05-01 15:27 | 30.59741 | -9.75607 | 18334 ft | 391 kts | 0° |
| 2026-05-01 15:28 | 30.65211 | -9.75137 | 19417 ft | 397 kts | 360° |
| 2026-05-01 15:28 | 30.67979 | -9.74898 | 19939 ft | 401 kts | 360° |
| 2026-05-01 15:28 | 30.70776 | -9.74657 | 20441 ft | 405 kts | 359° |
| 2026-05-01 15:29 | 30.76439 | -9.74167 | 21479 ft | 411 kts | 359° |
| 2026-05-01 15:29 | 30.79296 | -9.73920 | 22005 ft | 413 kts | 359° |
| 2026-05-01 15:29 | 30.85085 | -9.73419 | 22983 ft | 420 kts | 359° |
| 2026-05-01 15:30 | 30.89967 | -9.72996 | 23758 ft | 426 kts | 359° |
| 2026-05-01 15:31 | 31.02901 | -9.71872 | 25599 ft | 434 kts | 359° |
| 2026-05-01 15:31 | 31.08949 | -9.71359 | 26386 ft | 438 kts | 359° |
| 2026-05-01 15:32 | 31.14015 | -9.70929 | 27038 ft | 441 kts | 359° |
| 2026-05-01 15:32 | 31.20164 | -9.70406 | 27776 ft | 445 kts | 359° |
| 2026-05-01 15:33 | 31.29505 | -9.69608 | 28838 ft | 451 kts | 360° |
| 2026-05-01 15:34 | 31.38963 | -9.68796 | 29842 ft | 457 kts | 0° |